Time;durP1;ratioP1;P1;durP2;ratioP2;P2;SDS_P1;SDS_P2;PMS_P1;PMS_P2;Temp;Humidity;BMP_temperature;BMP_pressure;BME280_temperature;BME280_humidity;BME280_pressure;Samples;Min_cycle;Max_cycle;Signal;HPM_P1;HPM_P2
2022/10/23 00:02:24;;;;;;;27.30;11.52;;;19.40;99.90;;;;;;5054153;28;20040;-66
2022/10/23 00:05:29;;;;;;;29.02;12.73;;;19.40;99.90;;;;;;5053901;28;20052;-67
2022/10/23 00:08:33;;;;;;;23.20;11.15;;;19.40;99.90;;;;;;5054194;28;20048;-65
2022/10/23 00:11:37;;;;;;;20.13;11.32;;;19.50;99.90;;;;;;5054086;28;20052;-67
2022/10/23 00:14:41;;;;;;;20.52;11.30;;;19.50;99.90;;;;;;5053696;28;20048;-66
2022/10/23 00:17:46;;;;;;;20.17;12.15;;;19.60;99.90;;;;;;5053733;28;20064;-65
2022/10/23 00:20:50;;;;;;;19.98;11.93;;;19.50;99.90;;;;;;5053742;28;20047;-66
2022/10/23 00:23:53;;;;;;;20.88;11.02;;;19.50;99.90;;;;;;5053618;28;20056;-66
2022/10/23 00:26:57;;;;;;;23.92;12.38;;;19.50;99.90;;;;;;5053553;28;20040;-65
2022/10/23 00:30:03;;;;;;;21.42;11.43;;;19.50;99.90;;;;;;5052521;28;20060;-65
2022/10/23 00:33:09;;;;;;;20.17;11.57;;;19.50;99.90;;;;;;5053507;28;20044;-65
2022/10/23 00:36:15;;;;;;;21.00;12.48;;;19.50;99.90;;;;;;5052454;28;20044;-66
2022/10/23 00:39:21;;;;;;;24.83;11.38;;;19.40;99.90;;;;;;5053131;28;20060;-66
2022/10/23 00:42:25;;;;;;;28.30;12.43;;;19.40;99.90;;;;;;5053620;28;20331;-66
2022/10/23 00:45:32;;;;;;;20.63;11.40;;;19.40;99.90;;;;;;5053232;28;20230;-65
2022/10/23 00:48:36;;;;;;;18.73;11.18;;;19.40;99.90;;;;;;5053089;28;20040;-66
2022/10/23 00:51:43;;;;;;;20.75;11.30;;;19.30;99.90;;;;;;5053256;28;20056;-66
2022/10/23 00:54:48;;;;;;;25.23;11.32;;;19.30;99.90;;;;;;5052754;28;20044;-65
2022/10/23 00:57:52;;;;;;;20.48;11.85;;;19.40;99.90;;;;;;5053138;28;20052;-66
2022/10/23 01:00:56;;;;;;;21.60;11.30;;;19.40;99.90;;;;;;5052669;28;20040;-65
2022/10/23 01:04:05;;;;;;;24.92;13.07;;;19.30;99.90;;;;;;5052035;28;20052;-66
2022/10/23 01:07:30;;;;;;;27.73;14.13;;;19.20;99.90;;;;;;5051850;28;20048;-65
2022/10/23 01:10:48;;;;;;;23.13;12.65;;;19.30;99.90;;;;;;5052859;28;20059;-66
2022/10/23 01:13:58;;;;;;;21.00;12.38;;;19.20;99.90;;;;;;5051898;28;20040;-66
2022/10/23 01:17:15;;;;;;;25.88;13.13;;;19.10;99.90;;;;;;5051812;28;20060;-66
2022/10/23 01:20:31;;;;;;;24.80;13.23;;;19.10;99.90;;;;;;5051539;28;20514;-66
2022/10/23 01:23:34;;;;;;;28.63;13.48;;;19.00;99.90;;;;;;5052226;28;20036;-66
2022/10/23 01:27:08;;;;;;;23.45;13.82;;;19.00;99.90;;;;;;5040283;28;20048;-67
2022/10/23 01:30:15;;;;;;;27.45;14.77;;;18.90;99.90;;;;;;5052384;28;20044;-65
2022/10/23 01:33:35;;;;;;;24.75;14.23;;;18.70;99.90;;;;;;5051713;28;20056;-66
2022/10/23 01:36:42;;;;;;;29.60;14.38;;;18.70;99.90;;;;;;5051204;28;20502;-66
2022/10/23 01:39:51;;;;;;;26.73;14.93;;;18.70;99.90;;;;;;5051099;28;20044;-66
2022/10/23 01:43:00;;;;;;;20.98;14.20;;;18.70;99.90;;;;;;5052017;28;20032;-66
2022/10/23 01:46:09;;;;;;;26.52;14.75;;;18.70;99.90;;;;;;5051299;28;20491;-65
2022/10/23 01:49:18;;;;;;;28.85;14.15;;;18.70;99.90;;;;;;5051264;28;20044;-66
2022/10/23 01:52:27;;;;;;;30.85;16.05;;;18.70;99.90;;;;;;5039886;28;20060;-66
2022/10/23 01:55:32;;;;;;;21.23;14.73;;;18.70;99.90;;;;;;5050679;28;20507;-66
2022/10/23 01:58:44;;;;;;;22.77;14.63;;;18.70;99.90;;;;;;5039763;28;20401;-65
2022/10/23 02:01:51;;;;;;;26.38;14.95;;;18.70;99.90;;;;;;5050975;28;20396;-65
2022/10/23 02:05:11;;;;;;;25.33;14.68;;;18.70;99.90;;;;;;5051613;28;20040;-65
2022/10/23 02:08:14;;;;;;;29.13;14.30;;;18.80;99.90;;;;;;5051189;28;20047;-65
2022/10/23 02:11:21;;;;;;;25.73;14.32;;;18.90;99.90;;;;;;5050672;28;20044;-66
2022/10/23 02:15:16;;;;;;;22.83;13.48;;;18.90;99.90;;;;;;5051246;28;20047;-65
2022/10/23 02:18:43;;;;;;;22.13;14.43;;;19.00;99.90;;;;;;5036761;28;20048;-67
2022/10/23 02:21:53;;;;;;;31.13;13.98;;;19.00;99.90;;;;;;5050593;28;20044;-66
2022/10/23 02:25:08;;;;;;;25.60;14.52;;;18.90;99.90;;;;;;5051181;28;20072;-65
2022/10/23 02:28:18;;;;;;;27.83;14.45;;;18.80;99.90;;;;;;5050817;28;20051;-65
2022/10/23 02:31:23;;;;;;;29.50;14.40;;;18.90;99.90;;;;;;5039280;28;20044;-66
2022/10/23 02:34:28;;;;;;;29.15;14.02;;;19.00;99.90;;;;;;5051349;28;20044;-65
2022/10/23 02:37:33;;;;;;;18.17;13.40;;;19.10;99.90;;;;;;5051214;28;20044;-66
2022/10/23 02:40:43;;;;;;;20.50;13.38;;;19.10;99.90;;;;;;5050623;28;20056;-65
2022/10/23 02:44:02;;;;;;;25.23;13.63;;;19.10;99.90;;;;;;5038739;28;20043;-65
2022/10/23 02:47:34;;;;;;;24.45;13.27;;;19.20;99.90;;;;;;5038867;28;20044;-65
2022/10/23 02:50:44;;;;;;;24.33;13.70;;;19.20;99.90;;;;;;5039152;28;20051;-66
2022/10/23 02:54:30;;;;;;;22.13;12.52;;;19.20;99.90;;;;;;5049977;28;20056;-65
2022/10/23 02:57:45;;;;;;;21.13;13.90;;;19.30;99.90;;;;;;5046443;28;20388;-65
2022/10/23 03:00:54;;;;;;;26.35;13.98;;;19.30;99.90;;;;;;5050292;28;20052;-65
2022/10/23 03:04:01;;;;;;;22.05;12.57;;;19.30;99.90;;;;;;5050067;28;20036;-66
2022/10/23 03:07:10;;;;;;;23.35;13.68;;;19.20;99.90;;;;;;5050240;28;20048;-66
2022/10/23 03:10:14;;;;;;;24.55;13.88;;;19.20;99.90;;;;;;5049892;28;20056;-65
2022/10/23 03:13:19;;;;;;;23.75;13.85;;;19.30;99.90;;;;;;5049990;28;20072;-65
2022/10/23 03:16:23;;;;;;;20.30;13.13;;;19.30;99.90;;;;;;5050130;28;20048;-65
2022/10/23 03:19:30;;;;;;;22.35;13.10;;;19.30;99.90;;;;;;5053512;28;20060;-64
2022/10/23 03:22:36;;;;;;;25.52;12.90;;;19.30;99.90;;;;;;5049922;28;20040;-65
2022/10/23 03:25:40;;;;;;;24.30;13.85;;;19.40;99.90;;;;;;5038847;28;20060;-65
2022/10/23 03:28:44;;;;;;;20.45;12.40;;;19.30;99.90;;;;;;5054980;28;20063;-63
2022/10/23 03:31:48;;;;;;;23.33;14.30;;;19.20;99.90;;;;;;5054926;28;20048;-66
2022/10/23 03:34:52;;;;;;;24.83;13.65;;;19.20;99.90;;;;;;5053836;28;20048;-66
2022/10/23 03:37:58;;;;;;;21.58;13.50;;;19.20;99.90;;;;;;5053772;28;20052;-64
2022/10/23 03:41:03;;;;;;;31.92;14.88;;;19.10;99.90;;;;;;5042062;28;20048;-65
2022/10/23 03:44:07;;;;;;;22.40;13.50;;;19.10;99.90;;;;;;5054479;28;20491;-65
2022/10/23 03:47:11;;;;;;;28.42;14.02;;;19.00;99.90;;;;;;5042005;28;20040;-65
2022/10/23 03:50:16;;;;;;;20.38;13.75;;;19.10;99.90;;;;;;5054466;28;20068;-66
2022/10/23 03:53:20;;;;;;;25.15;13.75;;;19.10;99.90;;;;;;5052882;28;20044;-65
2022/10/23 03:56:24;;;;;;;22.95;14.20;;;19.10;99.90;;;;;;5053460;28;20052;-65
2022/10/23 03:59:28;;;;;;;25.08;14.48;;;18.90;99.90;;;;;;5054295;28;20048;-64
2022/10/23 04:02:32;;;;;;;20.13;13.77;;;18.90;99.90;;;;;;5054289;28;20036;-66
2022/10/23 04:05:37;;;;;;;22.95;13.93;;;18.80;99.90;;;;;;5053581;28;20047;-66
2022/10/23 04:08:45;;;;;;;26.92;15.10;;;18.80;99.90;;;;;;5053058;28;20044;-66
2022/10/23 04:11:54;;;;;;;24.20;14.10;;;18.80;99.90;;;;;;5053251;28;20044;-66
2022/10/23 04:14:58;;;;;;;26.13;14.38;;;18.80;99.90;;;;;;5053765;28;20052;-65
2022/10/23 04:18:03;;;;;;;27.80;15.65;;;18.70;99.90;;;;;;5052978;28;20044;-66
2022/10/23 04:21:08;;;;;;;26.80;14.73;;;18.70;99.90;;;;;;5041343;28;20389;-66
2022/10/23 04:24:12;;;;;;;24.77;15.68;;;18.70;99.90;;;;;;5041094;28;20044;-66
2022/10/23 04:27:16;;;;;;;27.50;14.80;;;18.70;99.90;;;;;;5052790;28;20087;-64
2022/10/23 04:30:20;;;;;;;24.05;15.57;;;18.70;99.90;;;;;;5052954;28;20507;-65
2022/10/23 04:33:25;;;;;;;26.58;15.32;;;18.70;99.90;;;;;;5052858;28;20048;-65
2022/10/23 04:36:29;;;;;;;32.67;15.07;;;18.70;99.90;;;;;;5052752;28;20256;-65
2022/10/23 04:39:39;;;;;;;25.20;14.27;;;18.80;99.90;;;;;;5052713;28;20828;-65
2022/10/23 04:42:43;;;;;;;26.77;15.32;;;18.80;99.90;;;;;;5052794;28;20043;-65
2022/10/23 04:45:49;;;;;;;25.00;14.85;;;18.80;99.90;;;;;;5052678;28;20503;-66
2022/10/23 04:48:53;;;;;;;22.55;13.73;;;18.80;99.90;;;;;;5040817;28;20494;-65
2022/10/23 04:52:26;;;;;;;25.98;14.38;;;19.00;99.90;;;;;;5052990;28;20043;-66
2022/10/23 04:56:01;;;;;;;30.40;13.48;;;19.10;99.90;;;;;;5052994;28;20044;-65
2022/10/23 04:59:20;;;;;;;24.15;13.43;;;19.10;99.90;;;;;;5052285;28;20051;-65
2022/10/23 05:02:24;;;;;;;25.65;13.82;;;19.10;99.90;;;;;;5052258;28;20036;-65
2022/10/23 05:05:30;;;;;;;25.05;13.68;;;19.10;99.90;;;;;;5051880;28;20040;-65
2022/10/23 05:08:41;;;;;;;30.30;14.27;;;19.10;99.90;;;;;;5052813;28;20506;-65
2022/10/23 05:11:56;;;;;;;23.88;14.63;;;19.10;99.90;;;;;;5052426;28;20060;-66
2022/10/23 05:15:01;;;;;;;19.17;14.20;;;19.10;99.90;;;;;;5051783;28;20387;-65
2022/10/23 05:18:16;;;;;;;26.15;14.40;;;19.10;99.90;;;;;;5052867;28;20051;-66
2022/10/23 05:21:25;;;;;;;23.23;14.43;;;19.10;99.90;;;;;;5052820;28;20392;-65
2022/10/23 05:24:29;;;;;;;20.65;14.93;;;19.00;99.90;;;;;;5040054;28;20056;-66
2022/10/23 05:27:37;;;;;;;21.70;14.40;;;19.00;99.90;;;;;;5051620;28;20043;-65
2022/10/23 05:30:46;;;;;;;21.73;14.27;;;19.10;99.90;;;;;;5051862;28;20055;-64
2022/10/23 05:33:53;;;;;;;28.77;13.93;;;19.10;99.90;;;;;;5039985;28;20044;-66
2022/10/23 05:36:58;;;;;;;22.48;14.25;;;19.10;99.90;;;;;;5039966;28;20047;-66
2022/10/23 05:40:03;;;;;;;25.17;13.73;;;19.10;99.90;;;;;;5052063;28;20044;-66
2022/10/23 05:43:09;;;;;;;29.98;14.60;;;19.10;99.90;;;;;;5051394;28;20107;-65
2022/10/23 05:46:26;;;;;;;29.75;14.50;;;19.10;99.90;;;;;;5051377;28;20044;-66
2022/10/23 05:49:51;;;;;;;25.13;13.48;;;19.20;99.90;;;;;;5050352;28;20039;-66
2022/10/23 05:53:18;;;;;;;26.50;13.85;;;19.30;99.90;;;;;;5051647;28;20048;-64
2022/10/23 05:56:42;;;;;;;20.23;12.80;;;19.30;99.90;;;;;;5051379;28;20051;-65
2022/10/23 06:00:07;;;;;;;20.00;13.68;;;19.30;99.90;;;;;;5051943;28;20039;-65
2022/10/23 06:03:19;;;;;;;25.98;14.00;;;19.30;99.90;;;;;;5051378;28;20396;-65
2022/10/23 06:06:27;;;;;;;27.38;13.52;;;19.30;99.90;;;;;;5051170;28;20044;-65
2022/10/23 06:09:31;;;;;;;28.73;14.50;;;19.30;99.90;;;;;;5051652;28;20518;-65
2022/10/23 06:12:35;;;;;;;27.95;13.95;;;19.30;99.90;;;;;;5051012;28;20116;-65
2022/10/23 06:15:40;;;;;;;26.70;12.77;;;19.40;99.90;;;;;;5050713;28;20052;-65
2022/10/23 06:18:53;;;;;;;20.63;12.77;;;19.50;99.90;;;;;;5039364;28;20040;-66
2022/10/23 06:21:57;;;;;;;24.85;12.73;;;19.40;99.90;;;;;;5039394;28;20067;-65
2022/10/23 06:25:14;;;;;;;18.92;12.63;;;19.50;99.90;;;;;;5050157;28;20040;-65
2022/10/23 06:28:18;;;;;;;20.38;12.95;;;19.50;99.90;;;;;;5038883;28;20040;-65
2022/10/23 06:31:27;;;;;;;27.92;13.82;;;19.60;99.90;;;;;;5050490;28;20036;-65
2022/10/23 06:34:33;;;;;;;21.40;14.40;;;19.40;99.90;;;;;;5050816;28;20510;-65
2022/10/23 06:37:37;;;;;;;22.92;13.40;;;19.40;99.90;;;;;;5050817;28;20495;-65
2022/10/23 06:40:55;;;;;;;19.17;12.33;;;19.60;99.90;;;;;;5050235;28;20059;-65
2022/10/23 06:44:11;;;;;;;22.98;12.38;;;19.60;99.90;;;;;;5050246;28;20044;-65
2022/10/23 06:47:22;;;;;;;21.65;12.45;;;19.80;99.90;;;;;;5050408;28;20040;-64
2022/10/23 06:50:47;;;;;;;24.35;12.45;;;19.90;99.90;;;;;;5051382;28;20044;-65
2022/10/23 06:53:56;;;;;;;18.25;11.95;;;19.90;99.90;;;;;;5050034;28;20051;-65
2022/10/23 06:57:27;;;;;;;24.23;13.00;;;20.00;99.90;;;;;;5045707;28;20060;-65
2022/10/23 07:00:31;;;;;;;20.25;12.68;;;20.00;99.90;;;;;;5051323;28;20431;-66
2022/10/23 07:03:35;;;;;;;21.27;13.15;;;20.00;99.90;;;;;;5054439;28;20040;-66
2022/10/23 07:06:43;;;;;;;21.42;13.07;;;19.90;99.90;;;;;;5054442;28;20108;-66
2022/10/23 07:09:48;;;;;;;18.95;12.45;;;19.70;99.90;;;;;;5042547;28;20044;-65
2022/10/23 07:13:17;;;;;;;34.50;13.63;;;19.80;99.90;;;;;;5054734;28;20063;-65
2022/10/23 07:16:34;;;;;;;27.05;13.55;;;19.80;99.90;;;;;;5042802;28;20494;-65
2022/10/23 07:19:38;;;;;;;26.52;13.55;;;19.70;99.90;;;;;;5054051;28;20056;-65
2022/10/23 07:22:54;;;;;;;20.20;12.48;;;19.70;99.90;;;;;;5054203;28;20052;-66
2022/10/23 07:26:14;;;;;;;21.60;12.75;;;19.90;99.90;;;;;;5042454;28;20036;-66
2022/10/23 07:29:18;;;;;;;23.05;12.68;;;20.10;99.90;;;;;;5042602;28;20387;-64
2022/10/23 07:32:26;;;;;;;24.30;12.88;;;20.10;99.90;;;;;;5054116;28;20040;-64
2022/10/23 07:35:49;;;;;;;17.25;11.57;;;20.10;99.90;;;;;;5054707;28;20048;-65
2022/10/23 07:39:01;;;;;;;23.67;13.15;;;20.20;99.90;;;;;;5053425;28;20498;-65
2022/10/23 07:42:05;;;;;;;21.05;12.20;;;20.40;99.90;;;;;;5036709;28;20076;-65
2022/10/23 07:45:11;;;;;;;24.08;12.60;;;20.50;99.90;;;;;;5053315;28;20056;-65
2022/10/23 07:48:20;;;;;;;20.58;13.15;;;20.20;99.90;;;;;;5053685;28;20040;-65
2022/10/23 07:51:45;;;;;;;20.95;11.77;;;20.20;99.90;;;;;;5054528;28;20040;-66
2022/10/23 07:54:52;;;;;;;20.30;11.68;;;20.70;99.90;;;;;;5053368;28;20048;-65
2022/10/23 07:57:58;;;;;;;20.70;11.93;;;20.90;99.90;;;;;;5053188;28;20100;-65
2022/10/23 08:01:19;;;;;;;18.00;11.07;;;21.30;99.90;;;;;;5053181;28;20043;-66
2022/10/23 08:04:24;;;;;;;23.13;11.63;;;21.50;99.90;;;;;;5053414;28;20044;-64
2022/10/23 08:07:33;;;;;;;14.93;11.48;;;21.20;99.90;;;;;;5053560;28;20048;-66
2022/10/23 08:10:40;;;;;;;21.13;11.27;;;21.50;99.90;;;;;;5053114;28;20483;-66
2022/10/23 08:13:46;;;;;;;19.75;11.80;;;21.70;99.90;;;;;;5052118;28;20044;-64
2022/10/23 08:16:51;;;;;;;19.58;10.82;;;21.80;99.90;;;;;;5053304;28;20072;-65
2022/10/23 08:19:55;;;;;;;17.33;10.80;;;22.00;99.90;;;;;;5053590;28;20047;-66
2022/10/23 08:23:00;;;;;;;18.83;11.00;;;22.00;99.90;;;;;;5052510;28;20048;-65
2022/10/23 08:26:07;;;;;;;22.83;12.18;;;21.70;99.90;;;;;;5052987;28;20040;-65
2022/10/23 08:29:12;;;;;;;20.52;12.13;;;21.50;99.90;;;;;;5052810;28;20048;-65
2022/10/23 08:32:16;;;;;;;22.73;11.70;;;21.30;99.90;;;;;;5052554;28;20040;-66
2022/10/23 08:35:36;;;;;;;17.30;11.88;;;21.00;99.90;;;;;;5053448;28;20044;-66
2022/10/23 08:38:41;;;;;;;18.00;11.60;;;21.10;99.90;;;;;;5052602;28;20538;-65
2022/10/23 08:41:50;;;;;;;21.63;12.13;;;21.30;99.90;;;;;;5052447;28;20048;-65
2022/10/23 08:45:04;;;;;;;20.90;12.05;;;21.50;99.90;;;;;;5053241;28;20052;-66
2022/10/23 08:48:23;;;;;;;19.08;11.15;;;21.70;99.90;;;;;;5052619;28;20052;-65
2022/10/23 08:51:49;;;;;;;17.80;11.18;;;22.00;99.90;;;;;;5053505;28;20051;-65
2022/10/23 08:55:05;;;;;;;15.50;10.35;;;22.00;99.90;;;;;;5052767;28;20047;-66
2022/10/23 08:58:22;;;;;;;16.90;10.85;;;22.10;99.90;;;;;;5055122;28;20407;-66
2022/10/23 09:01:48;;;;;;;13.55;10.82;;;22.10;99.90;;;;;;5053188;28;20396;-65
2022/10/23 09:04:54;;;;;;;20.65;11.80;;;22.20;99.90;;;;;;5052912;28;20040;-66
2022/10/23 09:08:16;;;;;;;25.23;12.02;;;22.30;99.90;;;;;;5053181;28;20048;-66
2022/10/23 09:11:47;;;;;;;17.77;11.07;;;21.90;99.90;;;;;;5052996;28;20056;-65
2022/10/23 09:15:12;;;;;;;18.88;12.63;;;21.70;99.90;;;;;;5044256;28;20055;-65
2022/10/23 09:18:16;;;;;;;27.63;11.98;;;21.90;99.90;;;;;;5053062;28;20048;-65
2022/10/23 09:21:26;;;;;;;18.67;12.05;;;22.50;99.90;;;;;;5052179;28;20250;-66
2022/10/23 09:24:32;;;;;;;16.02;10.90;;;22.70;99.90;;;;;;5051477;28;20044;-65
2022/10/23 09:27:36;;;;;;;15.02;10.20;;;22.80;99.90;;;;;;5052477;28;20064;-65
2022/10/23 09:30:41;;;;;;;15.60;10.45;;;22.50;99.90;;;;;;5039919;28;20048;-66
2022/10/23 09:33:54;;;;;;;19.48;10.75;;;22.90;99.90;;;;;;5051978;28;20363;-65
2022/10/23 09:37:18;;;;;;;15.65;10.50;;;22.80;99.90;;;;;;5052474;28;20040;-65
2022/10/23 09:40:42;;;;;;;43.78;22.63;;;22.90;99.90;;;;;;5052165;28;20048;-66
2022/10/23 09:43:58;;;;;;;102.32;40.53;;;23.40;99.90;;;;;;5052315;28;20036;-65
2022/10/23 09:47:05;;;;;;;18.17;10.70;;;23.10;99.90;;;;;;5051203;28;20044;-65
2022/10/23 09:50:20;;;;;;;16.48;9.90;;;23.30;99.90;;;;;;5052198;28;20095;-66
2022/10/23 09:53:36;;;;;;;23.38;9.57;;;23.80;99.90;;;;;;5051981;28;20044;-66
2022/10/23 09:56:40;;;;;;;37.70;17.70;;;24.10;99.90;;;;;;5051742;28;20036;-66
2022/10/23 09:59:53;;;;;;;24.83;12.57;;;24.00;99.90;;;;;;5052085;28;20392;-64
2022/10/23 10:03:04;;;;;;;15.90;8.73;;;24.30;99.90;;;;;;5039255;28;20392;-66
2022/10/23 10:06:27;;;;;;;20.83;8.90;;;25.20;99.90;;;;;;5050106;28;20040;-66
2022/10/23 10:09:32;;;;;;;26.90;9.52;;;25.40;99.90;;;;;;5051561;28;20048;-65
2022/10/23 10:12:46;;;;;;;13.02;7.95;;;25.80;99.90;;;;;;5051899;28;20048;-66
2022/10/23 10:15:57;;;;;;;20.92;10.10;;;26.40;99.90;;;;;;5051650;28;20056;-66
2022/10/23 10:19:16;;;;;;;13.60;7.63;;;26.70;99.90;;;;;;5051501;28;20051;-66
2022/10/23 10:22:41;;;;;;;13.45;7.35;;;26.80;99.90;;;;;;5051777;28;20048;-66
2022/10/23 10:26:00;;;;;;;22.05;7.82;;;26.50;99.90;;;;;;5051215;28;20048;-66
2022/10/23 10:29:11;;;;;;;16.63;8.10;;;26.10;99.90;;;;;;5051467;28;20501;-66
2022/10/23 10:32:36;;;;;;;15.10;8.52;;;25.10;99.90;;;;;;5050972;28;20036;-65
2022/10/23 10:35:50;;;;;;;19.02;8.75;;;23.60;99.90;;;;;;5050476;28;20399;-65
2022/10/23 10:39:00;;;;;;;17.80;8.40;;;23.90;99.90;;;;;;5046988;28;20048;-65
2022/10/23 10:42:23;;;;;;;20.08;8.50;;;23.90;99.90;;;;;;5049767;28;20533;-65
2022/10/23 10:45:42;;;;;;;18.25;8.43;;;23.90;99.90;;;;;;5051073;28;20060;-65
2022/10/23 10:49:00;;;;;;;14.18;8.73;;;23.70;99.90;;;;;;5051011;28;20486;-65
2022/10/23 10:52:10;;;;;;;20.02;8.50;;;23.70;99.90;;;;;;5051277;28;20040;-65
2022/10/23 10:55:29;;;;;;;27.05;9.25;;;23.70;99.90;;;;;;5050909;28;20529;-65
2022/10/23 10:58:45;;;;;;;18.92;9.32;;;23.50;99.90;;;;;;5051088;28;20032;-65
2022/10/23 11:02:04;;;;;;;17.33;9.18;;;23.60;99.90;;;;;;5051240;28;20388;-65
2022/10/23 11:05:33;;;;;;;18.10;9.82;;;24.10;99.90;;;;;;5051247;28;20036;-65
2022/10/23 11:08:39;;;;;;;22.63;9.10;;;24.20;99.90;;;;;;5051284;28;20060;-66
2022/10/23 11:11:43;;;;;;;18.05;8.13;;;24.10;99.90;;;;;;5050941;28;20052;-65
2022/10/23 11:14:49;;;;;;;20.08;8.98;;;23.80;99.90;;;;;;5050841;28;20052;-66
2022/10/23 11:17:59;;;;;;;20.75;8.57;;;23.60;99.90;;;;;;5050953;28;20119;-65
2022/10/23 11:21:39;;;;;;;25.65;8.45;;;24.00;99.90;;;;;;5038413;28;20056;-66
2022/10/23 11:25:12;;;;;;;22.48;8.95;;;24.40;99.90;;;;;;5046969;28;20040;-66
2022/10/23 11:29:11;;;;;;;20.02;8.15;;;24.50;99.90;;;;;;5050736;28;20384;-65
2022/10/23 11:32:53;;;;;;;22.27;8.50;;;24.50;99.90;;;;;;5050966;28;20514;-65
2022/10/23 11:36:13;;;;;;;20.33;8.55;;;24.10;99.90;;;;;;5050692;28;20044;-65
2022/10/23 11:39:57;;;;;;;21.48;9.45;;;23.90;99.90;;;;;;5050833;28;20044;-66
2022/10/23 11:43:01;;;;;;;19.77;8.63;;;23.50;99.90;;;;;;5050606;28;20538;-66
2022/10/23 11:46:13;;;;;;;26.30;9.75;;;23.50;99.90;;;;;;5050635;28;20052;-66
2022/10/23 11:49:20;;;;;;;16.70;8.93;;;23.40;99.90;;;;;;5054363;28;20071;-65
2022/10/23 11:52:24;;;;;;;15.85;8.98;;;23.40;99.90;;;;;;5054431;28;20040;-66
2022/10/23 11:55:30;;;;;;;20.73;8.75;;;23.40;99.90;;;;;;5054122;28;20052;-65
2022/10/23 11:58:44;;;;;;;18.60;8.45;;;23.40;99.90;;;;;;5054187;28;20494;-65
2022/10/23 12:01:50;;;;;;;21.38;9.70;;;23.40;99.90;;;;;;5053710;28;20506;-64
2022/10/23 12:04:55;;;;;;;25.50;10.25;;;23.50;99.90;;;;;;5053286;28;20120;-65
2022/10/23 12:08:01;;;;;;;15.88;8.32;;;23.40;99.90;;;;;;5053733;28;20056;-65
2022/10/23 12:11:28;;;;;;;18.45;8.43;;;23.60;99.90;;;;;;5054068;28;20040;-66
2022/10/23 12:14:50;;;;;;;19.63;9.02;;;23.60;99.90;;;;;;5053551;28;20044;-65
2022/10/23 12:18:06;;;;;;;28.05;8.90;;;23.50;99.90;;;;;;5054522;28;20107;-65
2022/10/23 12:21:25;;;;;;;20.70;8.60;;;23.60;99.90;;;;;;5041295;28;20052;-65
2022/10/23 12:24:55;;;;;;;24.05;9.60;;;23.60;99.90;;;;;;5041113;28;20040;-66
2022/10/23 12:28:18;;;;;;;20.50;8.45;;;23.70;99.90;;;;;;5053503;28;20032;-65
2022/10/23 12:31:44;;;;;;;19.10;8.88;;;23.80;99.90;;;;;;5053546;28;20056;-65
2022/10/23 12:34:50;;;;;;;18.85;8.30;;;24.10;99.90;;;;;;5053646;28;20044;-65
2022/10/23 12:38:01;;;;;;;23.50;9.13;;;24.00;99.90;;;;;;5041320;28;20510;-65
2022/10/23 12:41:15;;;;;;;13.23;8.30;;;23.80;99.90;;;;;;5052560;28;20048;-65
2022/10/23 12:44:24;;;;;;;23.05;8.82;;;23.90;99.90;;;;;;5052222;28;20415;-66
2022/10/23 12:47:29;;;;;;;19.95;9.18;;;24.00;99.90;;;;;;5053351;28;20040;-66
2022/10/23 12:50:33;;;;;;;19.80;8.05;;;24.20;99.90;;;;;;5053570;28;20044;-66
2022/10/23 12:53:37;;;;;;;21.42;9.25;;;24.40;99.90;;;;;;5053150;28;20175;-66
2022/10/23 12:56:43;;;;;;;20.85;9.50;;;24.40;99.90;;;;;;5053214;28;20044;-66
2022/10/23 12:59:47;;;;;;;20.45;8.55;;;24.20;99.90;;;;;;5053001;28;20063;-66
2022/10/23 13:02:59;;;;;;;20.50;8.63;;;23.90;99.90;;;;;;5052791;28;20040;-65
2022/10/23 13:06:04;;;;;;;23.38;9.18;;;23.90;99.90;;;;;;5052896;28;20286;-65
2022/10/23 13:09:21;;;;;;;16.00;8.95;;;23.70;99.90;;;;;;5052799;28;20392;-66
2022/10/23 13:12:54;;;;;;;30.33;9.60;;;23.70;99.90;;;;;;5051811;28;20385;-66
2022/10/23 13:15:58;;;;;;;17.50;8.52;;;23.80;99.90;;;;;;5052995;28;20036;-66
2022/10/23 13:19:02;;;;;;;20.42;9.45;;;24.10;99.90;;;;;;5052709;28;20044;-66
2022/10/23 13:22:20;;;;;;;19.60;8.93;;;24.30;99.90;;;;;;5052754;28;20040;-65
2022/10/23 13:25:35;;;;;;;21.30;8.80;;;24.50;99.90;;;;;;5052433;28;20041;-66
2022/10/23 13:28:44;;;;;;;18.20;8.05;;;24.50;99.90;;;;;;5052673;28;20036;-66
2022/10/23 13:31:48;;;;;;;22.25;9.02;;;24.50;99.90;;;;;;5052821;28;20043;-66
2022/10/23 13:34:54;;;;;;;22.40;9.07;;;24.60;99.90;;;;;;5052266;28;20051;-66
2022/10/23 13:38:07;;;;;;;15.82;8.30;;;24.30;99.90;;;;;;5052438;28;20044;-65
2022/10/23 13:41:15;;;;;;;22.27;8.82;;;24.50;99.90;;;;;;5052266;28;20044;-65
2022/10/23 13:44:22;;;;;;;15.02;7.88;;;24.40;99.90;;;;;;5051627;28;20032;-66
2022/10/23 13:47:26;;;;;;;22.15;8.32;;;24.60;99.90;;;;;;5040011;28;20099;-66
2022/10/23 13:50:31;;;;;;;18.50;7.88;;;25.10;99.90;;;;;;5051795;28;20040;-65
2022/10/23 13:53:34;;;;;;;21.05;8.27;;;24.80;99.90;;;;;;5052068;28;20111;-65
2022/10/23 13:56:38;;;;;;;21.40;9.80;;;24.30;99.90;;;;;;5052225;28;20063;-65
2022/10/23 13:59:42;;;;;;;23.33;10.10;;;24.00;99.90;;;;;;5052103;28;20043;-66
2022/10/23 14:02:46;;;;;;;14.30;8.75;;;23.80;99.90;;;;;;5051641;28;20044;-66
2022/10/23 14:05:50;;;;;;;16.60;9.57;;;23.90;99.90;;;;;;5052504;28;20051;-65
2022/10/23 14:08:55;;;;;;;21.85;8.80;;;23.80;99.90;;;;;;5051067;28;20039;-65
2022/10/23 14:11:59;;;;;;;19.58;10.07;;;23.90;99.90;;;;;;5051343;28;20048;-66
2022/10/23 14:15:02;;;;;;;17.85;9.15;;;23.80;99.90;;;;;;5051555;28;20400;-66
2022/10/23 14:18:06;;;;;;;26.02;8.93;;;23.80;99.90;;;;;;5051743;28;20060;-66
2022/10/23 14:21:12;;;;;;;25.65;9.02;;;23.90;99.90;;;;;;5051579;28;20076;-66
2022/10/23 14:24:16;;;;;;;13.43;8.00;;;24.20;99.90;;;;;;5051550;28;20052;-66
2022/10/23 14:27:21;;;;;;;18.83;8.45;;;24.60;99.90;;;;;;5051696;28;20391;-66
2022/10/23 14:30:24;;;;;;;16.20;7.78;;;24.70;99.90;;;;;;5051606;28;20495;-65
2022/10/23 14:33:28;;;;;;;21.55;8.80;;;24.20;99.90;;;;;;5038984;28;20048;-66
2022/10/23 14:36:32;;;;;;;25.13;8.88;;;23.80;99.90;;;;;;5051551;28;20060;-66
2022/10/23 14:39:36;;;;;;;21.15;9.30;;;23.90;99.90;;;;;;5051296;28;20048;-66
2022/10/23 14:42:40;;;;;;;21.27;9.02;;;23.70;99.90;;;;;;5051439;28;20051;-66
2022/10/23 14:45:44;;;;;;;23.00;8.75;;;23.60;99.90;;;;;;5051598;28;20040;-66
2022/10/23 14:48:48;;;;;;;33.45;9.48;;;23.50;99.90;;;;;;5051084;28;20043;-65
2022/10/23 14:51:52;;;;;;;15.73;8.60;;;23.40;99.90;;;;;;5051406;28;20044;-66
2022/10/23 14:54:56;;;;;;;22.73;8.75;;;23.30;99.90;;;;;;5050905;28;20063;-65
2022/10/23 14:58:00;;;;;;;20.58;9.02;;;23.30;99.90;;;;;;5051327;28;20499;-66
2022/10/23 15:01:05;;;;;;;19.15;8.68;;;23.20;99.90;;;;;;5050960;28;20048;-65
2022/10/23 15:04:09;;;;;;;20.83;8.43;;;23.20;99.90;;;;;;5051439;28;20048;-66
2022/10/23 15:07:13;;;;;;;20.77;8.48;;;23.20;99.90;;;;;;5050700;28;20043;-66
2022/10/23 15:10:16;;;;;;;19.52;8.88;;;23.20;99.90;;;;;;5051114;28;20044;-66
2022/10/23 15:13:20;;;;;;;20.05;9.77;;;23.10;99.90;;;;;;5050912;28;20498;-66
2022/10/23 15:16:25;;;;;;;23.17;9.40;;;23.00;99.90;;;;;;5051266;28;20048;-66
2022/10/23 15:19:29;;;;;;;21.52;9.02;;;23.00;99.90;;;;;;5052217;28;20396;-66
2022/10/23 15:22:33;;;;;;;25.83;10.50;;;23.00;99.90;;;;;;5053762;28;20047;-66
2022/10/23 15:25:39;;;;;;;18.60;8.63;;;23.00;99.90;;;;;;5054765;28;20044;-66
2022/10/23 15:28:43;;;;;;;20.33;9.38;;;23.00;99.90;;;;;;5054838;28;20052;-66
2022/10/23 15:31:53;;;;;;;16.17;8.60;;;23.00;99.90;;;;;;5055059;28;20048;-67
2022/10/23 15:34:58;;;;;;;16.02;8.65;;;23.00;99.90;;;;;;5054448;28;20522;-66
2022/10/23 15:38:02;;;;;;;22.05;8.95;;;22.80;99.90;;;;;;5054654;28;20502;-66
2022/10/23 15:41:14;;;;;;;20.67;9.05;;;22.90;99.90;;;;;;5054652;28;20044;-66
2022/10/23 15:44:20;;;;;;;20.13;9.27;;;22.80;99.90;;;;;;5054530;28;20040;-66
2022/10/23 15:47:24;;;;;;;17.48;10.13;;;22.70;99.90;;;;;;5054665;28;20040;-65
2022/10/23 15:50:28;;;;;;;25.50;10.35;;;22.50;99.90;;;;;;5054268;28;20044;-66
2022/10/23 15:53:32;;;;;;;18.58;9.77;;;22.40;99.90;;;;;;5054629;28;20071;-66
2022/10/23 15:56:36;;;;;;;17.80;9.27;;;22.20;99.90;;;;;;5054434;28;20523;-65
2022/10/23 15:59:40;;;;;;;19.30;9.98;;;22.10;99.90;;;;;;5054593;28;20495;-65
2022/10/23 16:02:44;;;;;;;16.85;10.00;;;22.00;99.90;;;;;;5054268;28;20048;-65
2022/10/23 16:05:48;;;;;;;19.00;10.25;;;21.90;99.90;;;;;;5053824;28;20491;-65
2022/10/23 16:08:52;;;;;;;23.45;11.10;;;21.80;99.90;;;;;;5054087;28;20049;-65
2022/10/23 16:11:55;;;;;;;20.58;10.48;;;21.50;99.90;;;;;;5053930;28;20407;-65